Aérodrome :
LOGIN :

S'inscrire | Disclaimer

   EN    FR    IT 

 










Légende :    VFR   VFR Marginal   IFR   IFR Intensif   IFR Très Intensif
Visi : 
Plafond : 
>= 8 km
>= 3000ft
5 à 8 km
1000 à 3000 ft
1500m à 5 km
500 à 1000 ft
800 à 1500m
200 à 500 ft
< 800m
< 200 ft
Symboles :   Orages  Brouillard  Fortes neiges  Fortes précipitations  Vent > 20 kt
SIGMETs :   Divers  Orages  Givrage  Turbulence  Onde Orograph.  Cendres Volcan.






- Altitude de l'aérodrome : 386 ft
- Code IATA : QOE


ETNN - Nörvenich Airforce Base

DERNIER METAR :
  • 301020Z 26020KT 9999 SCT020 07/03 Q1018 BLU+BLU+ TEMPO WHT

METARs EXPIRÉS :
  • 300920Z 27016KT 9999 FEW010 07/04 Q1018 BLU+BLU+ TEMPO WHT
  • 300834Z 26017KT 9999 FEW008 SCT014 06/04 Q1017 BLU+BLU+ TEMPO WHT
  • 300820Z 26016KT 9999 SCT008 BKN012 06/05 Q1017 GRN GRN BECMG BLU+

TAF TAF ETNN
Valide du 30 à 09h jusqu'au 30 à 18h UTC


300815Z 3009/3018 27018G28KT 9999 NSW SCT025
TEMPO 3009/3015 28020G33KT 9999 NSW BKN020 BY ETGL



MET'MAP, la Météo Aéronautique d'un coup d'oeil ! - Copyright ORBIFLY Décembre 2007 - Disclaimer

ORBIFLY MET'MAP TEAM :

Programmation & Développement : Alexandra Zaïnal
Sur une idée originale de : Baudouin d'Aumeries
Soutien technique & logistique : Manuel Goepfert
Assistance : Marc-Olivier Méhu




SOURCES & CREDITS :

   NOAA